Time;durP1;ratioP1;P1;durP2;ratioP2;P2;SDS_P1;SDS_P2;PMS_P1;PMS_P2;Temp;Humidity;BMP_temperature;BMP_pressure;BME280_temperature;BME280_humidity;BME280_pressure;Samples;Min_cycle;Max_cycle;Signal;HPM_P1;HPM_P2
2021/12/03 00:00:27;;;;;;;0.50;0.50;;;;;;;22.03;32.92;98658.17;1895151;74;28284;-54
2021/12/03 00:03:16;;;;;;;0.40;0.40;;;;;;;22.03;32.89;98659.81;1905324;74;27986;-50
2021/12/03 00:06:05;;;;;;;0.50;0.50;;;;;;;22.03;32.92;98655.71;1900265;74;28064;-52
2021/12/03 00:08:54;;;;;;;0.42;0.42;;;;;;;22.03;32.88;98657.64;1892356;74;28064;-52
2021/12/03 00:11:43;;;;;;;0.70;0.43;;;;;;;22.08;32.84;98663.73;1900681;74;28055;-50
2021/12/03 00:14:34;;;;;;;0.75;0.42;;;;;;;22.07;32.83;98653.85;1895267;74;28087;-55
2021/12/03 00:17:23;;;;;;;0.33;0.33;;;;;;;22.08;32.85;98663.73;1892242;74;28055;-50
2021/12/03 00:20:14;;;;;;;0.30;0.30;;;;;;;22.07;32.86;98664.79;1836034;77;28173;-52
2021/12/03 00:23:06;;;;;;;0.40;0.40;;;;;;;22.08;32.85;98670.00;1830582;77;28364;-53
2021/12/03 00:25:55;;;;;;;0.40;0.40;;;;;;;22.09;32.82;98677.14;1840861;77;28252;-50
2021/12/03 00:28:45;;;;;;;0.50;0.50;;;;;;;22.11;32.81;98683.19;1832710;77;28234;-55
2021/12/03 00:31:33;;;;;;;0.40;0.40;;;;;;;22.10;32.84;98686.17;1832033;77;28298;-54
2021/12/03 00:34:22;;;;;;;0.40;0.40;;;;;;;22.09;32.83;98689.98;1830722;77;28103;-52
2021/12/03 00:37:10;;;;;;;0.50;0.50;;;;;;;22.07;32.89;98701.71;1842724;77;28321;-53
2021/12/03 00:39:59;;;;;;;0.40;0.40;;;;;;;22.09;32.87;98708.59;1831076;77;28113;-52
2021/12/03 00:42:48;;;;;;;0.40;0.40;;;;;;;22.10;32.86;98714.33;1843321;77;28173;-49
2021/12/03 00:45:37;;;;;;;0.50;0.50;;;;;;;22.08;32.90;98715.69;1842552;77;28249;-52
2021/12/03 00:48:26;;;;;;;0.40;0.40;;;;;;;22.14;32.81;98725.62;1839906;77;28271;-56
2021/12/03 00:51:15;;;;;;;0.40;0.40;;;;;;;22.11;32.82;98740.62;1835029;77;28134;-52
2021/12/03 00:54:04;;;;;;;0.40;0.40;;;;;;;22.13;32.81;98725.31;1852055;76;28189;-53
2021/12/03 00:56:52;;;;;;;0.40;0.40;;;;;;;22.12;32.83;98730.52;1842835;76;28154;-53
2021/12/03 00:59:41;;;;;;;0.33;0.33;;;;;;;22.13;32.82;98735.72;1848789;76;28170;-51
2021/12/03 01:02:29;;;;;;;0.50;0.50;;;;;;;22.12;32.84;98735.45;1841534;76;28283;-54
2021/12/03 01:05:21;;;;;;;0.40;0.40;;;;;;;22.11;32.80;98741.98;1844496;77;28149;-53
2021/12/03 01:08:10;;;;;;;0.50;0.50;;;;;;;22.11;32.81;98754.30;1852416;76;28261;-54
2021/12/03 01:10:59;;;;;;;0.45;0.45;;;;;;;22.12;32.80;98757.87;1906241;74;28193;-51
2021/12/03 01:13:48;;;;;;;0.50;0.50;;;;;;;22.12;32.79;98761.97;1911600;74;28022;-49
2021/12/03 01:16:37;;;;;;;0.30;0.30;;;;;;;22.15;32.78;98771.05;1917506;74;28533;-50
2021/12/03 01:19:27;;;;;;;0.40;0.40;;;;;;;22.13;32.80;98769.08;1827223;77;28086;-51
2021/12/03 01:22:16;;;;;;;0.47;0.40;;;;;;;22.12;32.79;98774.28;1833292;77;28265;-49
2021/12/03 01:25:07;;;;;;;0.50;0.50;;;;;;;22.13;32.78;98775.92;1829447;76;28146;-53
2021/12/03 01:27:58;;;;;;;0.50;0.50;;;;;;;22.12;32.74;98770.17;1820875;77;28259;-50
2021/12/03 01:30:47;;;;;;;0.40;0.40;;;;;;;22.14;32.72;98781.69;1792949;78;28799;-50
2021/12/03 01:33:35;;;;;;;0.60;0.40;;;;;;;22.12;32.71;98781.95;1794444;78;28161;-52
2021/12/03 01:36:26;;;;;;;1.10;0.50;;;;;;;22.15;32.67;98802.51;1812499;78;28167;-50
2021/12/03 01:39:15;;;;;;;0.45;0.40;;;;;;;22.12;32.70;98795.63;1819801;78;28108;-51
2021/12/03 01:42:04;;;;;;;0.50;0.50;;;;;;;22.12;32.68;98812.04;1820481;77;28145;-51
2021/12/03 01:44:52;;;;;;;0.37;0.37;;;;;;;22.10;32.70;98810.63;1889789;75;27983;-51
2021/12/03 01:47:43;;;;;;;0.47;0.47;;;;;;;22.11;32.70;98823.20;1879226;75;28132;-50
2021/12/03 01:50:36;;;;;;;0.40;0.40;;;;;;;22.09;32.74;98813.05;1879083;75;28070;-52
2021/12/03 01:53:28;;;;;;;0.88;0.45;;;;;;;22.08;32.73;98816.32;1869786;75;28032;-49
2021/12/03 01:56:19;;;;;;;0.47;0.45;;;;;;;22.07;32.78;98818.78;1898641;75;28048;-51
2021/12/03 01:59:10;;;;;;;0.82;0.30;;;;;;;22.09;32.79;98824.00;1879904;75;38551;-49
2021/12/03 02:01:59;;;;;;;0.50;0.50;;;;;;;22.10;32.77;98830.58;1883066;75;31056;-53
2021/12/03 02:04:51;;;;;;;0.40;0.40;;;;;;;22.08;32.79;98816.89;1873026;75;28108;-53
2021/12/03 02:07:41;;;;;;;1.02;0.42;;;;;;;22.12;32.76;98812.57;1878827;75;28117;-51
2021/12/03 02:10:30;;;;;;;0.37;0.37;;;;;;;22.09;32.76;98812.52;1881817;75;31007;-50
2021/12/03 02:13:19;;;;;;;0.37;0.37;;;;;;;22.10;32.72;98808.70;1870249;75;28138;-52
2021/12/03 02:16:10;;;;;;;0.40;0.40;;;;;;;22.08;32.78;98807.31;1882606;75;28038;-53
2021/12/03 02:18:59;;;;;;;0.35;0.35;;;;;;;22.07;32.79;98811.11;1882190;75;28056;-53
2021/12/03 02:21:49;;;;;;;0.40;0.40;;;;;;;22.07;32.80;98803.74;1878756;75;27980;-54
2021/12/03 02:24:38;;;;;;;0.40;0.40;;;;;;;22.04;32.80;98801.49;1868806;76;28220;-47
2021/12/03 02:27:27;;;;;;;0.30;0.30;;;;;;;22.04;32.86;98802.86;1882253;75;28529;-52
2021/12/03 02:30:16;;;;;;;0.35;0.35;;;;;;;22.04;32.84;98798.76;1884695;75;31955;-52
2021/12/03 02:33:05;;;;;;;0.53;0.40;;;;;;;22.03;32.86;98800.66;1879893;75;28056;-53
2021/12/03 02:35:54;;;;;;;0.40;0.30;;;;;;;22.06;32.86;98802.60;1886764;75;28089;-52
2021/12/03 02:38:44;;;;;;;0.30;0.30;;;;;;;22.03;32.88;98798.48;1881218;75;28062;-53
2021/12/03 02:41:32;;;;;;;0.85;0.40;;;;;;;22.04;32.87;98794.66;1901745;75;27983;-51
2021/12/03 02:44:21;;;;;;;0.30;0.30;;;;;;;22.03;32.88;98797.12;1889944;75;28123;-50
2021/12/03 02:47:10;;;;;;;0.30;0.30;;;;;;;22.03;32.94;98795.19;1886035;75;28063;-52
2021/12/03 02:49:58;;;;;;;0.40;0.40;;;;;;;22.03;32.92;98794.91;1868892;76;28123;-49
2021/12/03 02:52:49;;;;;;;0.35;0.35;;;;;;;22.03;32.89;98803.12;1895880;75;28029;-46
2021/12/03 02:55:38;;;;;;;0.33;0.33;;;;;;;22.00;32.92;98798.97;1880237;75;28561;-52
2021/12/03 02:58:28;;;;;;;0.40;0.40;;;;;;;22.02;32.91;98802.28;1868966;76;28100;-51
2021/12/03 03:01:17;;;;;;;0.40;0.40;;;;;;;22.03;32.94;98805.86;1879245;75;28127;-51
2021/12/03 03:04:06;;;;;;;0.30;0.30;;;;;;;22.05;32.87;98798.23;1879876;75;28048;-50
2021/12/03 03:06:56;;;;;;;0.40;0.40;;;;;;;22.01;32.91;98793.24;1880164;75;28092;-49
2021/12/03 03:09:46;;;;;;;0.40;0.40;;;;;;;22.00;32.95;98791.61;1884043;75;28111;-52
2021/12/03 03:12:35;;;;;;;0.30;0.30;;;;;;;22.00;32.95;98792.97;1870083;75;28047;-54
2021/12/03 03:15:25;;;;;;;0.60;0.60;;;;;;;21.97;32.97;98801.66;1872654;75;28138;-51
2021/12/03 03:18:25;;;;;;;0.30;0.30;;;;;;;21.96;33.02;98805.45;1901726;75;27987;-52
2021/12/03 03:21:14;;;;;;;0.40;0.40;;;;;;;21.97;33.02;98805.76;1886264;75;28048;-51
2021/12/03 03:24:07;;;;;;;0.62;0.40;;;;;;;21.97;33.01;98804.92;1877088;74;28108;-50
2021/12/03 03:26:56;;;;;;;0.50;0.35;;;;;;;21.97;33.05;98803.56;1872996;75;28110;-49
2021/12/03 03:29:48;;;;;;;0.47;0.47;;;;;;;21.96;33.03;98806.02;1886011;75;28009;-50
2021/12/03 03:32:36;;;;;;;0.30;0.30;;;;;;;21.95;33.04;98816.12;1883797;75;38513;-51
2021/12/03 03:35:26;;;;;;;0.30;0.30;;;;;;;21.97;33.01;98824.91;1881339;75;38611;-52
2021/12/03 03:38:16;;;;;;;0.40;0.40;;;;;;;21.96;33.03;98816.95;1882765;75;28331;-51
2021/12/03 03:41:06;;;;;;;0.50;0.42;;;;;;;22.01;32.98;98835.63;1870834;75;28107;-51
2021/12/03 03:43:54;;;;;;;0.30;0.30;;;;;;;21.99;32.98;98837.78;1872497;75;28127;-51
2021/12/03 03:46:45;;;;;;;0.30;0.30;;;;;;;21.98;32.99;98836.11;1868178;75;28022;-52
2021/12/03 03:49:35;;;;;;;0.23;0.23;;;;;;;21.99;32.98;98839.16;1894431;75;28067;-52
2021/12/03 03:52:23;;;;;;;0.30;0.30;;;;;;;22.01;32.96;98849.84;1857036;77;28190;-50
2021/12/03 03:55:14;;;;;;;0.33;0.33;;;;;;;22.00;32.94;98842.20;1863821;76;28044;-54
2021/12/03 03:58:05;;;;;;;0.40;0.40;;;;;;;22.00;32.95;98846.30;1869043;76;28410;-50
2021/12/03 04:00:55;;;;;;;0.30;0.30;;;;;;;22.00;32.93;98834.52;1861350;75;28108;-48
2021/12/03 04:03:46;;;;;;;0.40;0.40;;;;;;;22.00;32.92;98835.89;1859893;75;28115;-51
2021/12/03 04:06:34;;;;;;;0.55;0.40;;;;;;;21.99;32.89;98839.16;1873906;75;28016;-52
2021/12/03 04:09:23;;;;;;;0.30;0.30;;;;;;;21.99;32.93;98839.16;1870259;75;28173;-51
2021/12/03 04:12:12;;;;;;;0.40;0.40;;;;;;;22.01;32.89;98832.06;1878525;75;28092;-52
2021/12/03 04:15:01;;;;;;;0.30;0.30;;;;;;;22.00;32.88;98838.09;1889421;75;27970;-50
2021/12/03 04:17:50;;;;;;;0.40;0.40;;;;;;;22.00;32.85;98828.52;1889353;75;28039;-50
2021/12/03 04:20:38;;;;;;;0.53;0.40;;;;;;;21.97;32.85;98837.21;1895544;75;27996;-51
2021/12/03 04:23:27;;;;;;;0.95;0.50;;;;;;;21.99;32.85;98848.73;1889409;75;27975;-51
2021/12/03 04:26:16;;;;;;;0.30;0.30;;;;;;;22.01;32.83;98856.14;1876515;75;28139;-48
2021/12/03 04:29:06;;;;;;;0.30;0.30;;;;;;;21.99;32.80;98865.14;1882742;75;28146;-49
2021/12/03 04:31:54;;;;;;;0.30;0.30;;;;;;;21.98;32.81;98861.29;1881413;75;28102;-48
2021/12/03 04:34:42;;;;;;;0.40;0.40;;;;;;;21.98;32.81;98863.46;1885458;75;28100;-53
2021/12/03 04:37:32;;;;;;;0.30;0.30;;;;;;;22.00;32.77;98864.07;1889409;75;28000;-50
2021/12/03 04:40:22;;;;;;;0.62;0.30;;;;;;;22.00;32.78;98864.07;1881096;75;28164;-52
2021/12/03 04:43:12;;;;;;;1.07;0.40;;;;;;;21.98;32.76;98868.13;1869066;76;28155;-51
2021/12/03 04:46:01;;;;;;;1.40;0.40;;;;;;;21.99;32.75;98880.17;1891141;75;28148;-50
2021/12/03 04:48:50;;;;;;;0.50;0.50;;;;;;;21.99;32.74;98882.91;1870304;75;28062;-49
2021/12/03 04:51:40;;;;;;;0.65;0.30;;;;;;;22.00;32.69;98894.69;1869133;75;28057;-53
2021/12/03 04:54:29;;;;;;;0.30;0.30;;;;;;;22.01;32.68;98898.53;1894976;75;27958;-50
2021/12/03 04:57:18;;;;;;;0.30;0.30;;;;;;;21.99;32.68;98899.32;1867970;75;31082;-48
2021/12/03 05:00:10;;;;;;;0.37;0.37;;;;;;;22.00;32.67;98906.47;1885567;75;28050;-50
2021/12/03 05:02:59;;;;;;;0.33;0.33;;;;;;;21.99;32.63;98906.16;1857106;77;28069;-50
2021/12/03 05:05:53;;;;;;;0.63;0.63;;;;;;;21.96;32.64;98914.84;1881106;75;28119;-53
2021/12/03 05:08:37;;;;;;;0.30;0.30;;;;;;;21.97;32.66;98916.52;1890562;75;27983;-52
2021/12/03 05:11:26;;;;;;;0.20;0.20;;;;;;;21.96;32.67;98914.84;1889449;75;31969;-53
2021/12/03 05:14:15;;;;;;;0.30;0.30;;;;;;;21.96;32.65;98931.81;1867771;75;28103;-50
2021/12/03 05:17:04;;;;;;;0.33;0.33;;;;;;;21.99;32.62;98936.23;1874604;75;28060;-51
2021/12/03 05:19:53;;;;;;;0.40;0.40;;;;;;;21.96;32.63;98935.35;1857004;77;28209;-51
2021/12/03 05:22:42;;;;;;;0.40;0.33;;;;;;;21.96;32.60;98942.19;1884235;75;28030;-50
2021/12/03 05:25:31;;;;;;;0.68;0.35;;;;;;;21.98;32.59;98950.17;1886647;75;27997;-54
2021/12/03 05:28:21;;;;;;;0.30;0.30;;;;;;;21.98;32.55;98952.34;1895419;75;31895;-51
2021/12/03 05:31:11;;;;;;;0.28;0.28;;;;;;;21.96;32.55;98965.43;1885953;75;28116;-51
2021/12/03 05:34:00;;;;;;;0.37;0.37;;;;;;;21.97;32.58;98969.84;1885764;75;28178;-51
2021/12/03 05:36:49;;;;;;;0.37;0.37;;;;;;;21.90;32.57;98966.41;1887916;75;28097;-52
2021/12/03 05:39:39;;;;;;;0.50;0.33;;;;;;;21.96;32.51;98972.27;1885823;75;28128;-53
2021/12/03 05:42:27;;;;;;;0.40;0.40;;;;;;;21.93;32.52;98976.88;1888269;75;27985;-51
2021/12/03 05:45:19;;;;;;;0.30;0.20;;;;;;;21.93;32.53;98988.34;1866438;75;28173;-50
2021/12/03 05:48:08;;;;;;;0.50;0.50;;;;;;;21.93;32.54;98991.92;1899705;75;28087;-49
2021/12/03 05:50:56;;;;;;;0.20;0.20;;;;;;;21.94;32.56;98995.45;1881628;75;28020;-52
2021/12/03 05:53:45;;;;;;;0.45;0.45;;;;;;;21.96;32.52;99000.98;1898154;75;28128;-50
2021/12/03 05:56:34;;;;;;;0.80;0.40;;;;;;;21.93;32.57;99011.59;1870737;75;28048;-47
2021/12/03 05:59:23;;;;;;;0.33;0.33;;;;;;;21.94;32.56;99017.33;1898045;75;28177;-51
2021/12/03 06:02:13;;;;;;;0.40;0.40;;;;;;;21.93;32.62;99026.63;1879482;75;28130;-52
2021/12/03 06:05:04;;;;;;;0.40;0.40;;;;;;;21.94;32.61;99029.64;1882495;75;28130;-50
2021/12/03 06:07:54;;;;;;;0.28;0.28;;;;;;;21.92;32.66;99038.09;1853320;77;28028;-49
2021/12/03 06:10:44;;;;;;;0.30;0.30;;;;;;;21.89;32.67;99038.56;1890301;75;27983;-48
2021/12/03 06:13:33;;;;;;;0.23;0.23;;;;;;;21.90;32.68;99042.14;1867307;75;28225;-46
2021/12/03 06:16:23;;;;;;;0.47;0.47;;;;;;;21.89;32.71;99042.67;1875540;75;28028;-51
2021/12/03 06:19:13;;;;;;;0.40;0.40;;;;;;;21.90;32.68;99047.61;1881487;75;28112;-53
2021/12/03 06:22:02;;;;;;;0.30;0.30;;;;;;;21.90;32.71;99062.13;1894307;75;28084;-50
2021/12/03 06:24:51;;;;;;;0.30;0.30;;;;;;;21.89;32.73;99069.20;1871343;75;27998;-49
2021/12/03 06:27:42;;;;;;;0.40;0.40;;;;;;;21.88;32.73;99075.20;1871363;75;28191;-49
2021/12/03 06:30:30;;;;;;;0.35;0.35;;;;;;;21.86;32.77;99081.45;1871387;75;28134;-49
2021/12/03 06:33:19;;;;;;;0.30;0.30;;;;;;;21.87;32.78;99091.30;1896871;75;27979;-47
2021/12/03 06:36:08;;;;;;;0.30;0.30;;;;;;;21.87;32.79;99097.30;1889213;75;28023;-48
2021/12/03 06:38:57;;;;;;;0.30;0.30;;;;;;;21.87;32.83;99089.94;1884457;75;28087;-50
2021/12/03 06:41:46;;;;;;;0.30;0.30;;;;;;;21.86;32.84;99096.49;1866836;75;27972;-52
2021/12/03 06:44:34;;;;;;;0.20;0.20;;;;;;;21.85;32.84;99097.55;1887532;75;28126;-48
2021/12/03 06:47:23;;;;;;;0.40;0.40;;;;;;;21.86;32.83;99106.06;1869057;76;28095;-49
2021/12/03 06:50:21;;;;;;;0.80;0.40;;;;;;;21.90;32.80;99099.56;1891288;75;28130;-50
2021/12/03 06:53:07;;;;;;;0.40;0.30;;;;;;;21.86;32.84;99110.16;1879502;75;27983;-48
2021/12/03 06:56:04;;;;;;;0.30;0.30;;;;;;;21.86;32.85;99108.80;1874749;75;28136;-47
2021/12/03 06:58:48;;;;;;;0.30;0.30;;;;;;;21.85;32.86;99113.95;1882369;75;28065;-48
2021/12/03 07:01:37;;;;;;;0.40;0.30;;;;;;;21.85;32.85;99118.06;1876505;75;28103;-50
2021/12/03 07:04:25;;;;;;;0.40;0.40;;;;;;;21.86;32.89;99118.89;1894202;75;28027;-47
2021/12/03 07:07:14;;;;;;;0.30;0.30;;;;;;;21.84;32.90;99127.31;1889277;75;28046;-53
2021/12/03 07:10:05;;;;;;;0.30;0.30;;;;;;;21.86;32.89;99133.94;1899810;75;27974;-48
2021/12/03 07:12:55;;;;;;;0.33;0.33;;;;;;;21.85;32.90;99135.83;1882625;75;27989;-47
2021/12/03 07:15:45;;;;;;;0.80;0.33;;;;;;;21.84;32.92;99143.72;1893467;75;28185;-48
2021/12/03 07:18:34;;;;;;;0.50;0.40;;;;;;;21.84;32.92;99150.55;1890654;75;28086;-50
2021/12/03 07:21:24;;;;;;;0.35;0.35;;;;;;;21.84;32.96;99152.48;1863231;75;28191;-48
2021/12/03 07:24:13;;;;;;;0.80;0.40;;;;;;;21.86;32.95;99151.71;1881504;75;28017;-48
2021/12/03 07:27:02;;;;;;;0.40;0.40;;;;;;;21.86;32.83;99155.28;1894649;75;28079;-50
2021/12/03 07:29:51;;;;;;;0.90;0.40;;;;;;;21.85;32.41;99150.88;1875676;75;28209;-50
2021/12/03 07:32:39;;;;;;;0.50;0.50;;;;;;;21.83;32.18;99162.55;1885979;75;28093;-48
2021/12/03 07:35:28;;;;;;;0.75;0.75;;;;;;;21.79;31.90;99163.27;1894182;75;28092;-47
2021/12/03 07:38:18;;;;;;;0.50;0.50;;;;;;;21.72;31.05;99162.02;1883803;75;28061;-47
2021/12/03 07:41:07;;;;;;;0.80;0.70;;;;;;;21.67;30.62;99165.99;1876427;75;28098;-46
2021/12/03 07:43:56;;;;;;;0.80;0.80;;;;;;;21.68;30.07;99167.64;1900420;75;28019;-47
2021/12/03 07:46:45;;;;;;;0.60;0.60;;;;;;;21.66;29.84;99168.41;1885153;75;28045;-44
2021/12/03 07:49:34;;;;;;;0.65;0.65;;;;;;;21.66;29.76;99169.78;1894976;75;28056;-45
2021/12/03 07:52:24;;;;;;;1.10;0.50;;;;;;;21.67;29.75;99174.72;1890753;75;28098;-46
2021/12/03 07:55:13;;;;;;;0.50;0.50;;;;;;;21.65;29.83;99179.06;1884181;75;27988;-47
2021/12/03 07:58:04;;;;;;;0.80;0.80;;;;;;;21.65;29.86;99176.86;1889696;75;28025;-51
2021/12/03 08:00:57;;;;;;;1.10;0.70;;;;;;;21.64;29.93;99184.22;1889355;73;28131;-49
2021/12/03 08:03:44;;;;;;;0.90;0.53;;;;;;;21.65;30.02;99192.73;1901794;73;28250;-48
2021/12/03 08:06:35;;;;;;;0.60;0.60;;;;;;;21.63;30.12;99200.87;1895494;73;28072;-49
2021/12/03 08:09:24;;;;;;;1.10;0.60;;;;;;;21.63;30.21;99207.70;1877281;75;28005;-49
2021/12/03 08:12:13;;;;;;;0.60;0.60;;;;;;;21.63;30.29;99208.55;1883878;73;28070;-53
2021/12/03 08:15:01;;;;;;;0.90;0.53;;;;;;;21.64;30.38;99206.09;1875288;75;28172;-51
2021/12/03 08:17:51;;;;;;;0.88;0.47;;;;;;;21.60;30.51;99212.27;1901304;75;28010;-52
2021/12/03 08:20:41;;;;;;;1.42;0.62;;;;;;;21.60;30.56;99204.06;1880127;75;28072;-50
2021/12/03 08:23:30;;;;;;;0.60;0.60;;;;;;;21.63;30.65;99214.53;1896020;75;28183;-48
2021/12/03 08:26:19;;;;;;;0.60;0.60;;;;;;;21.63;30.70;99211.80;1889995;75;28021;-49
2021/12/03 08:29:09;;;;;;;0.70;0.70;;;;;;;21.65;30.76;99217.34;1895967;73;28413;-48
2021/12/03 08:31:57;;;;;;;0.70;0.70;;;;;;;21.66;30.77;99226.34;1878522;75;28129;-53
2021/12/03 08:34:46;;;;;;;0.93;0.70;;;;;;;21.66;30.77;99224.45;1882871;75;28161;-51
2021/12/03 08:37:34;;;;;;;0.70;0.70;;;;;;;21.64;30.87;99227.95;1869292;75;28084;-48
2021/12/03 08:40:24;;;;;;;0.70;0.70;;;;;;;21.66;30.89;99231.28;1879542;73;28092;-51
2021/12/03 08:43:12;;;;;;;1.22;0.70;;;;;;;21.64;31.01;99232.06;1898293;75;27983;-50
2021/12/03 08:46:09;;;;;;;0.70;0.70;;;;;;;21.64;31.03;99242.15;1891780;75;28114;-53
2021/12/03 08:48:51;;;;;;;0.65;0.65;;;;;;;21.63;31.07;99247.34;1886165;75;27993;-54
2021/12/03 08:54:52;;;;;;;0.70;0.70;;;;;;;21.60;31.29;99251.37;1890487;75;28172;-52
2021/12/03 08:57:39;;;;;;;0.70;0.70;;;;;;;21.61;31.33;99261.22;1890858;75;28085;-55
2021/12/03 09:00:30;;;;;;;1.20;0.82;;;;;;;21.61;31.40;99265.88;1878097;75;28104;-53
2021/12/03 09:03:18;;;;;;;1.30;0.70;;;;;;;21.60;31.52;99272.39;1884682;75;28069;-55
2021/12/03 09:06:06;;;;;;;1.10;0.90;;;;;;;21.62;31.61;99281.19;1886323;75;28692;-52
2021/12/03 09:08:55;;;;;;;1.00;0.90;;;;;;;21.62;31.66;99287.50;1879550;75;28125;-52
2021/12/03 09:11:43;;;;;;;1.60;1.00;;;;;;;21.61;31.74;99285.01;1869732;75;28159;-51
2021/12/03 09:14:38;;;;;;;1.40;0.80;;;;;;;21.62;31.80;99297.06;1870749;75;28113;-53
2021/12/03 09:17:56;;;;;;;1.57;1.00;;;;;;;21.61;31.91;99305.51;1886894;75;28073;-55
2021/12/03 09:20:44;;;;;;;1.27;0.90;;;;;;;21.63;31.97;99305.58;1867428;75;28138;-54
2021/12/03 09:26:27;;;;;;;1.85;1.00;;;;;;;21.62;32.22;99314.83;1890187;75;28112;-51
2021/12/03 09:29:24;;;;;;;2.58;1.00;;;;;;;21.62;32.41;99325.77;1885768;75;28054;-49
2021/12/03 09:32:07;;;;;;;1.45;0.95;;;;;;;21.66;32.47;99318.76;1866158;74;28060;-51
2021/12/03 09:34:56;;;;;;;1.80;1.00;;;;;;;21.66;32.19;99322.02;1874230;74;28133;-49
2021/12/03 09:37:45;;;;;;;1.20;1.10;;;;;;;21.67;31.94;99325.91;1857252;77;28107;-51
2021/12/03 09:40:35;;;;;;;2.00;0.93;;;;;;;21.67;31.82;99330.00;1863591;74;38463;-52
2021/12/03 09:43:23;;;;;;;2.40;1.10;;;;;;;21.67;31.80;99334.63;1898891;73;28199;-52
2021/12/03 09:52:10;;;;;;;1.73;1.37;;;;;;;21.69;31.88;99333.34;1916139;73;28107;-54
2021/12/03 09:54:55;;;;;;;1.80;1.37;;;;;;;21.69;31.94;99326.50;1871121;73;28212;-51
2021/12/03 09:57:45;;;;;;;1.60;1.50;;;;;;;21.71;32.00;99320.80;1878524;75;28186;-53
2021/12/03 10:00:44;;;;;;;4.23;1.80;;;;;;;21.71;32.03;99312.06;1884348;75;28202;-52
2021/12/03 10:03:41;;;;;;;3.08;1.60;;;;;;;21.71;32.11;99313.95;1888724;75;28044;-51
2021/12/03 10:12:57;;;;;;;2.77;1.95;;;;;;;21.68;32.29;99312.52;1879168;73;33581;-52
2021/12/03 10:16:46;;;;;;;1.90;1.80;;;;;;;21.69;32.37;99308.73;1869614;75;28187;-50
2021/12/03 10:18:53;;;;;;;2.77;1.92;;;;;;;21.69;32.42;99313.36;1865601;75;28093;-53
2021/12/03 10:22:06;;;;;;;2.10;1.90;;;;;;;21.71;32.43;99312.06;1909738;73;28038;-51
2021/12/03 10:28:05;;;;;;;2.22;2.00;;;;;;;21.73;32.42;99305.83;1888029;75;28024;-52
2021/12/03 10:31:35;;;;;;;3.65;2.22;;;;;;;21.72;32.52;99307.44;1870565;75;28169;-52
2021/12/03 10:40:07;;;;;;;2.50;2.30;;;;;;;21.74;32.59;99297.09;1908179;73;28168;-51
2021/12/03 10:43:07;;;;;;;2.58;2.30;;;;;;;21.75;32.58;99296.05;1900179;74;28145;-50
2021/12/03 10:45:58;;;;;;;2.60;2.10;;;;;;;21.75;32.67;99299.59;1886019;74;32052;-51
2021/12/03 10:48:49;;;;;;;2.50;2.30;;;;;;;21.75;32.64;99298.22;1912332;74;28260;-53
2021/12/03 10:54:43;;;;;;;2.60;2.40;;;;;;;21.78;32.67;99292.82;1898503;74;28229;-52
2021/12/03 11:01:00;;;;;;;3.75;2.35;;;;;;;21.78;32.71;99289.56;1896505;74;28148;-52
2021/12/03 11:03:56;;;;;;;2.47;2.12;;;;;;;21.76;32.78;99298.53;1893690;74;28050;-50
2021/12/03 11:06:42;;;;;;;2.55;2.27;;;;;;;21.80;32.76;99301.09;1910643;74;28106;-52
2021/12/03 11:43:33;;;;;;;4.97;2.75;;;;;;;21.88;33.00;99287.66;1914361;74;28055;-53
2021/12/03 13:12:08;;;;;;;2.37;2.10;;;;;;;21.81;33.77;99226.74;1757589;78;28457;-52
2021/12/03 14:37:41;;;;;;;3.20;2.00;;;;;;;21.75;33.97;99190.23;1892037;74;28179;-54
2021/12/03 14:43:25;;;;;;;1.85;1.70;;;;;;;21.76;33.93;99175.50;1889407;74;28095;-54
2021/12/03 14:46:38;;;;;;;2.00;1.80;;;;;;;21.77;33.95;99174.98;1889541;74;28117;-56
2021/12/03 14:52:23;;;;;;;2.65;1.82;;;;;;;21.77;33.97;99178.55;1892305;74;28161;-54
2021/12/03 14:55:11;;;;;;;1.92;1.82;;;;;;;21.79;33.91;99178.30;1911209;74;28148;-54
2021/12/03 14:58:17;;;;;;;1.98;1.77;;;;;;;21.80;33.92;99193.62;1879092;74;28173;-52
2021/12/03 15:01:10;;;;;;;1.87;1.70;;;;;;;21.78;33.93;99194.39;1884904;74;28080;-53
2021/12/03 15:06:55;;;;;;;1.70;1.60;;;;;;;21.80;33.93;99194.98;1892241;74;28200;-54
2021/12/03 15:09:40;;;;;;;1.90;1.70;;;;;;;21.78;33.97;99195.23;1878365;76;28098;-52
2021/12/03 15:21:49;;;;;;;1.67;1.57;;;;;;;21.75;33.97;99205.27;1883989;73;28151;-51
2021/12/03 15:30:43;;;;;;;1.67;1.57;;;;;;;21.77;34.01;99209.16;1908302;74;28309;-53
2021/12/03 15:33:37;;;;;;;1.57;1.47;;;;;;;21.79;33.98;99220.16;1888868;74;28075;-54
2021/12/03 15:36:19;;;;;;;2.00;1.80;;;;;;;21.78;33.98;99225.83;1910206;74;28061;-51
2021/12/03 15:55:06;;;;;;;1.72;1.62;;;;;;;21.71;34.04;99227.31;1900480;74;28070;-53
2021/12/03 16:12:50;;;;;;;1.27;1.27;;;;;;;21.74;34.07;99256.93;1888566;74;28045;-54
2021/12/03 16:46:48;;;;;;;1.27;1.27;;;;;;;21.68;34.22;99256.48;1879347;74;28156;-54
2021/12/03 16:51:56;;;;;;;1.40;1.30;;;;;;;21.66;34.24;99253.68;1894028;74;28105;-52
2021/12/03 16:54:51;;;;;;;1.40;1.20;;;;;;;21.65;34.26;99252.88;1889354;74;28057;-55
2021/12/03 16:57:36;;;;;;;1.40;1.40;;;;;;;21.71;34.21;99249.71;1906669;74;28020;-55
2021/12/03 17:00:39;;;;;;;1.53;1.43;;;;;;;21.70;34.19;99253.53;1899418;74;28053;-55
2021/12/03 17:03:35;;;;;;;1.15;1.15;;;;;;;21.69;34.19;99257.32;1895826;74;28194;-53
2021/12/03 17:12:49;;;;;;;1.50;1.40;;;;;;;21.62;34.27;99247.02;1901971;74;28141;-54
2021/12/03 17:16:04;;;;;;;1.50;1.40;;;;;;;21.61;34.30;99248.91;1878357;76;28213;-53
2021/12/03 17:49:13;;;;;;;1.57;1.47;;;;;;;21.62;34.49;99260.69;1888367;75;28065;-51
2021/12/03 17:58:12;;;;;;;1.60;1.50;;;;;;;21.53;34.01;99267.03;1858506;75;28286;-53
2021/12/03 18:01:15;;;;;;;2.30;1.42;;;;;;;21.55;34.03;99263.53;1899063;73;28114;-54
2021/12/03 18:17:29;;;;;;;1.40;1.40;;;;;;;21.64;33.83;99262.13;1875414;75;28141;-55
2021/12/03 18:46:56;;;;;;;1.30;1.20;;;;;;;21.73;34.08;99248.41;1866644;75;28029;-60
2021/12/03 18:55:55;;;;;;;2.65;1.40;;;;;;;21.73;34.26;99248.41;1879449;75;28231;-59
2021/12/03 18:58:39;;;;;;;2.67;1.50;;;;;;;21.68;34.42;99265.23;1870746;75;28145;-59
2021/12/03 19:01:29;;;;;;;3.05;1.55;;;;;;;21.73;34.37;99264.81;1884301;74;28018;-54
2021/12/03 19:04:33;;;;;;;1.57;1.40;;;;;;;21.73;34.33;99248.94;1894362;74;28053;-54
2021/12/03 19:07:19;;;;;;;2.20;1.70;;;;;;;21.78;34.37;99238.14;1889710;74;28110;-54
2021/12/03 19:10:05;;;;;;;1.40;1.20;;;;;;;21.79;34.26;99235.72;1872311;74;28271;-54
2021/12/03 19:12:58;;;;;;;1.40;1.30;;;;;;;21.78;34.36;99240.34;1868736;76;28130;-55
2021/12/03 19:15:44;;;;;;;1.12;1.10;;;;;;;21.84;34.30;99239.98;1887070;75;28083;-55
2021/12/03 19:18:32;;;;;;;1.32;1.22;;;;;;;21.86;34.23;99232.38;1898251;75;30986;-54
2021/12/03 19:21:24;;;;;;;1.40;1.30;;;;;;;21.85;34.14;99224.70;1888611;75;28017;-51
2021/12/03 19:24:16;;;;;;;2.17;1.35;;;;;;;21.82;34.26;99219.66;1872145;75;28642;-55
2021/12/03 19:27:08;;;;;;;1.40;1.30;;;;;;;21.86;34.19;99216.80;1879994;75;28108;-54
2021/12/03 19:29:59;;;;;;;1.60;1.50;;;;;;;21.86;34.15;99209.97;1877941;75;28169;-55
2021/12/03 19:32:47;;;;;;;2.40;1.50;;;;;;;21.87;34.17;99207.52;1868431;75;28188;-55
2021/12/03 19:35:39;;;;;;;1.43;1.33;;;;;;;21.88;34.14;99220.13;1884882;75;28022;-56
2021/12/03 19:38:29;;;;;;;2.10;1.22;;;;;;;21.90;34.05;99214.41;1902552;74;28036;-55
2021/12/03 19:44:39;;;;;;;1.60;1.30;;;;;;;21.88;34.08;99209.20;1888898;75;28196;-56
2021/12/03 19:47:30;;;;;;;1.40;1.30;;;;;;;21.84;34.15;99197.04;1904215;74;28145;-56
2021/12/03 19:53:27;;;;;;;1.60;1.50;;;;;;;21.89;34.11;99219.05;1897125;74;28034;-56
2021/12/03 19:56:09;;;;;;;1.60;1.40;;;;;;;21.89;34.06;99212.77;1910884;74;28124;-53
2021/12/03 19:58:59;;;;;;;1.50;1.40;;;;;;;21.86;34.12;99202.30;1907265;74;28020;-57
2021/12/03 20:01:48;;;;;;;2.50;1.40;;;;;;;21.90;34.06;99199.38;1900824;74;28157;-55
2021/12/03 20:04:37;;;;;;;1.55;1.45;;;;;;;21.88;34.09;99192.78;1822485;77;28164;-53
2021/12/03 20:07:25;;;;;;;2.10;1.47;;;;;;;21.89;34.05;99182.12;1834639;77;28236;-54
2021/12/03 20:10:16;;;;;;;1.70;1.30;;;;;;;21.92;34.00;99186.30;1835975;77;28319;-56
2021/12/03 20:13:06;;;;;;;1.50;1.40;;;;;;;21.90;34.04;99183.80;1834040;77;28338;-53
2021/12/03 20:18:53;;;;;;;1.40;1.30;;;;;;;21.87;34.03;99178.80;1838023;77;28475;-54
2021/12/03 20:21:47;;;;;;;1.37;1.37;;;;;;;21.84;34.10;99175.73;1825715;77;28383;-56
2021/12/03 20:24:51;;;;;;;1.90;1.50;;;;;;;21.88;34.08;99169.55;1855776;77;28302;-57